createdAt,value
2022-08-21T00:02:04.071Z,3.55
2022-08-21T00:04:31.579Z,4.18
2022-08-21T00:06:59.608Z,4.38
2022-08-21T00:09:26.646Z,4.68
2022-08-21T00:11:54.334Z,4.05
2022-08-21T00:14:21.127Z,3.42
2022-08-21T00:16:47.853Z,4.07
2022-08-21T00:19:14.432Z,4.00
2022-08-21T00:21:41.182Z,4.50
2022-08-21T00:24:11.707Z,3.95
2022-08-21T00:26:38.311Z,4.50
2022-08-21T00:29:05.274Z,4.10
2022-08-21T00:31:31.910Z,5.10
2022-08-21T00:34:00.706Z,4.55
2022-08-21T00:36:28.412Z,3.80
2022-08-21T00:38:55.017Z,4.70
2022-08-21T00:41:37.816Z,3.20
2022-08-21T00:44:08.950Z,4.05
2022-08-21T00:46:36.567Z,3.55
2022-08-21T00:49:04.006Z,3.60
2022-08-21T00:51:39.082Z,3.20
2022-08-21T00:54:14.059Z,3.40
2022-08-21T00:56:47.626Z,3.08
2022-08-21T00:59:15.618Z,3.33
2022-08-21T01:01:42.207Z,2.72
2022-08-21T01:04:08.839Z,2.60
2022-08-21T01:06:36.178Z,3.45
2022-08-21T01:09:03.359Z,3.50
2022-08-21T01:11:30.094Z,3.45
2022-08-21T01:13:56.863Z,3.10
2022-08-21T01:16:23.888Z,3.42
2022-08-21T01:18:51.997Z,2.92
2022-08-21T01:21:28.754Z,3.00
2022-08-21T01:23:57.010Z,3.30
2022-08-21T01:26:33.642Z,3.10
2022-08-21T01:29:08.634Z,2.97
2022-08-21T01:31:35.338Z,3.30
2022-08-21T01:34:02.337Z,3.75
2022-08-21T01:36:29.479Z,3.97
2022-08-21T01:38:57.205Z,3.40
2022-08-21T01:41:23.938Z,4.03
2022-08-21T01:43:50.827Z,3.33
2022-08-21T01:46:18.607Z,3.50
2022-08-21T01:48:45.437Z,3.88
2022-08-21T01:51:12.795Z,3.28
2022-08-21T01:53:40.132Z,3.60
2022-08-21T01:56:12.205Z,4.18
2022-08-21T01:58:40.754Z,4.05
2022-08-21T02:01:07.944Z,3.97
2022-08-21T02:03:35.532Z,4.00
2022-08-21T02:06:04.702Z,3.33
2022-08-21T02:08:31.709Z,3.00
2022-08-21T02:10:58.324Z,3.47
2022-08-21T02:13:25.469Z,3.28
2022-08-21T02:15:52.043Z,3.28
2022-08-21T02:18:19.379Z,3.17
2022-08-21T02:20:55.239Z,3.38
2022-08-21T02:23:26.473Z,4.28
2022-08-21T02:25:58.806Z,4.32
2022-08-21T02:28:25.458Z,3.97
2022-08-21T02:30:56.003Z,4.63
2022-08-21T02:33:22.962Z,3.67
2022-08-21T02:35:49.897Z,3.25
2022-08-21T02:38:19.836Z,3.88
2022-08-21T02:40:50.950Z,3.40
2022-08-21T02:43:19.650Z,4.38
2022-08-21T02:45:47.634Z,3.50
2022-08-21T02:48:17.834Z,3.50
2022-08-21T02:50:49.330Z,3.90
2022-08-21T02:53:17.707Z,3.53
2022-08-21T02:55:49.903Z,3.63
2022-08-21T02:58:23.433Z,3.90
2022-08-21T03:00:50.952Z,3.38
2022-08-21T03:03:18.183Z,3.42
2022-08-21T03:05:45.448Z,3.38
2022-08-21T03:08:14.345Z,3.00
2022-08-21T03:10:45.067Z,3.47
2022-08-21T03:13:12.276Z,3.40
2022-08-21T03:15:41.176Z,3.80
2022-08-21T03:18:12.465Z,3.80
2022-08-21T03:20:42.329Z,3.70
2022-08-21T03:23:12.717Z,3.42
2022-08-21T03:25:41.630Z,4.35
2022-08-21T03:28:13.286Z,5.38
2022-08-21T03:30:42.437Z,5.10
2022-08-21T03:33:09.101Z,4.30
2022-08-21T03:35:39.012Z,4.95
2022-08-21T03:38:05.712Z,5.78
2022-08-21T03:40:32.710Z,5.50
2022-08-21T03:42:59.946Z,5.40
2022-08-21T03:45:26.780Z,4.60
2022-08-21T03:48:02.743Z,5.07
2022-08-21T03:50:32.717Z,5.43
2022-08-21T03:53:02.121Z,4.38
2022-08-21T03:55:29.228Z,4.30
2022-08-21T03:57:56.857Z,4.30
2022-08-21T04:00:24.575Z,3.80
2022-08-21T04:02:51.542Z,4.97
2022-08-21T04:05:28.440Z,5.63
2022-08-21T04:08:00.439Z,5.05
2022-08-21T04:10:29.249Z,4.68
2022-08-21T04:12:56.813Z,4.72
2022-08-21T04:15:25.867Z,5.32
2022-08-21T04:17:53.240Z,7.95
2022-08-21T04:20:22.533Z,7.70
2022-08-21T04:22:51.687Z,7.43
2022-08-21T04:25:21.756Z,6.15
2022-08-21T04:27:48.445Z,5.93
2022-08-21T04:30:16.302Z,6.63
2022-08-21T04:32:45.068Z,6.25
2022-08-21T04:35:12.651Z,6.68
2022-08-21T04:37:42.170Z,7.43
2022-08-21T04:40:13.739Z,8.88
2022-08-21T04:42:45.778Z,8.20
2022-08-21T04:45:23.069Z,5.20
2022-08-21T04:47:54.006Z,5.97
2022-08-21T04:50:25.891Z,7.90
2022-08-21T04:52:53.093Z,7.82
2022-08-21T04:55:20.892Z,7.63
2022-08-21T04:57:48.442Z,7.18
2022-08-21T05:00:19.813Z,7.43
2022-08-21T05:02:48.742Z,7.43
2022-08-21T05:05:16.714Z,6.15
2022-08-21T05:07:45.115Z,6.95
2022-08-21T05:10:12.590Z,6.60
2022-08-21T05:12:43.022Z,5.53
2022-08-21T05:15:13.616Z,5.80
2022-08-21T05:17:42.082Z,6.28
2022-08-21T05:20:10.692Z,10.50
2022-08-21T05:22:37.651Z,8.20
2022-08-21T05:25:10.174Z,8.90
2022-08-21T05:27:39.626Z,7.57
2022-08-21T05:30:10.311Z,8.23
2022-08-21T05:32:37.834Z,8.37
2022-08-21T05:35:08.778Z,9.40
2022-08-21T05:37:36.498Z,12.18
2022-08-21T05:40:22.566Z,11.52
2022-08-21T05:42:56.318Z,11.73
2022-08-21T05:45:41.280Z,12.40
2022-08-21T05:48:18.197Z,11.10
2022-08-21T05:50:45.980Z,10.50
2022-08-21T05:53:13.469Z,12.00
2022-08-21T05:55:45.818Z,11.43
2022-08-21T05:58:17.061Z,15.10
2022-08-21T06:00:44.423Z,13.57
2022-08-21T06:03:21.971Z,13.15
2022-08-21T06:05:48.868Z,13.45
2022-08-21T06:08:17.302Z,11.57
2022-08-21T06:10:44.745Z,13.40
2022-08-21T06:13:11.891Z,12.57
2022-08-21T06:15:39.127Z,13.20
2022-08-21T06:18:06.384Z,15.27
2022-08-21T06:20:33.393Z,14.95
2022-08-21T06:23:00.305Z,13.55
2022-08-21T06:25:27.086Z,14.50
2022-08-21T06:27:53.786Z,15.65
2022-08-21T06:30:20.956Z,19.15
2022-08-21T06:32:47.582Z,16.75
2022-08-21T06:35:14.177Z,19.67
2022-08-21T06:37:40.801Z,17.90
2022-08-21T06:40:12.491Z,21.23
2022-08-21T06:42:41.279Z,15.00
2022-08-21T06:45:08.430Z,14.90
2022-08-21T06:47:35.361Z,16.15
2022-08-21T06:50:02.064Z,15.25
2022-08-21T06:52:28.833Z,15.10
2022-08-21T06:54:55.449Z,20.42
2022-08-21T06:57:22.855Z,18.55
2022-08-21T06:59:49.475Z,17.80
2022-08-21T07:02:16.056Z,15.68
2022-08-21T07:04:42.666Z,19.75
2022-08-21T07:07:09.249Z,15.70
2022-08-21T07:09:36.047Z,16.42
2022-08-21T07:12:03.549Z,14.98
2022-08-21T07:14:30.215Z,17.60
2022-08-21T07:16:56.817Z,15.43
2022-08-21T07:19:23.705Z,16.10
2022-08-21T07:21:50.314Z,17.05
2022-08-21T07:24:17.012Z,18.27
2022-08-21T07:26:43.687Z,17.13
2022-08-21T07:29:12.361Z,18.58
2022-08-21T07:31:39.420Z,16.40
2022-08-21T07:34:06.010Z,16.95
2022-08-21T07:36:33.292Z,16.00
2022-08-21T07:39:01.986Z,16.17
2022-08-21T07:41:30.411Z,17.65
2022-08-21T07:43:58.386Z,15.60
2022-08-21T07:46:26.584Z,19.00
2022-08-21T07:48:54.020Z,18.65
2022-08-21T07:51:25.005Z,16.92
2022-08-21T07:53:53.676Z,18.52
2022-08-21T07:56:21.081Z,18.98
2022-08-21T07:58:48.214Z,20.02
2022-08-21T08:01:15.082Z,21.65
2022-08-21T08:03:42.071Z,15.93
2022-08-21T08:06:13.230Z,19.15
2022-08-21T08:08:42.528Z,14.27
2022-08-21T08:11:16.015Z,17.25
2022-08-21T08:13:45.875Z,16.48
2022-08-21T08:16:12.811Z,14.30
2022-08-21T08:18:39.433Z,14.00
2022-08-21T08:21:06.811Z,18.00
2022-08-21T08:23:33.634Z,20.67
2022-08-21T08:26:00.919Z,16.83
2022-08-21T08:28:28.261Z,20.27
2022-08-21T08:30:55.446Z,19.85
2022-08-21T08:33:22.167Z,17.17
2022-08-21T08:35:51.000Z,14.82
2022-08-21T08:38:21.407Z,16.83
2022-08-21T08:41:01.028Z,15.88
2022-08-21T08:43:30.941Z,15.15
2022-08-21T08:46:02.434Z,15.98
2022-08-21T08:51:03.837Z,17.80
2022-08-21T08:53:39.247Z,17.65
2022-08-21T08:56:07.008Z,16.02
2022-08-21T08:58:38.963Z,17.88
2022-08-21T09:01:15.332Z,13.43
2022-08-21T09:03:42.178Z,14.55
2022-08-21T09:06:30.168Z,16.58
2022-08-21T09:09:27.955Z,19.02
2022-08-21T09:12:23.611Z,16.10
2022-08-21T09:15:08.082Z,17.17
2022-08-21T09:17:41.121Z,16.27
2022-08-21T09:20:28.563Z,14.95
2022-08-21T09:23:29.366Z,17.30
2022-08-21T09:26:03.931Z,18.67
2022-08-21T09:28:37.344Z,16.35
2022-08-21T09:31:08.041Z,18.02
2022-08-21T09:33:35.592Z,18.63
2022-08-21T09:36:02.303Z,17.35
2022-08-21T09:38:38.214Z,17.63
2022-08-21T09:41:11.204Z,19.23
2022-08-21T09:43:39.489Z,17.73
2022-08-21T09:46:13.109Z,14.50
2022-08-21T09:48:48.271Z,16.02
2022-08-21T09:51:28.201Z,14.95
2022-08-21T09:54:07.139Z,18.17
2022-08-21T09:57:14.816Z,13.98
2022-08-21T09:59:42.639Z,13.60
2022-08-21T10:02:30.579Z,14.70
2022-08-21T10:05:17.725Z,17.10
2022-08-21T10:07:44.514Z,12.63
2022-08-21T10:10:32.547Z,14.57
2022-08-21T10:13:34.773Z,15.15
2022-08-21T10:16:15.912Z,11.30
2022-08-21T10:19:05.106Z,14.70
2022-08-21T10:21:40.177Z,11.80
2022-08-21T10:24:45.249Z,13.20
2022-08-21T10:27:27.582Z,13.07
2022-08-21T10:30:08.525Z,11.57
2022-08-21T10:32:53.318Z,11.77
2022-08-21T10:35:22.904Z,11.20
2022-08-21T10:38:04.333Z,9.52
2022-08-21T10:43:05.861Z,11.40
2022-08-21T10:46:00.438Z,9.10
2022-08-21T10:48:39.645Z,8.82
2022-08-21T10:51:28.892Z,9.75
2022-08-21T10:54:35.921Z,10.70
2022-08-21T10:57:35.861Z,8.77
2022-08-21T11:00:12.369Z,8.48
2022-08-21T11:02:44.635Z,9.70
2022-08-21T11:05:28.927Z,8.20
2022-08-21T11:08:05.078Z,7.70
2022-08-21T11:11:11.081Z,8.13
2022-08-21T11:13:55.050Z,6.63
2022-08-21T11:16:46.862Z,6.10
2022-08-21T11:19:29.245Z,6.88
2022-08-21T11:22:27.739Z,6.65
2022-08-21T11:24:54.300Z,6.20
2022-08-21T11:27:39.215Z,6.47
2022-08-21T11:30:07.685Z,6.10
2022-08-21T11:33:24.876Z,6.57
2022-08-21T11:35:54.913Z,6.28
2022-08-21T11:38:29.328Z,6.70
2022-08-21T11:41:22.964Z,6.82
2022-08-21T11:44:02.771Z,5.90
2022-08-21T11:46:34.022Z,6.68
2022-08-21T11:52:12.677Z,7.18
2022-08-21T11:54:55.250Z,6.05
2022-08-21T11:57:27.748Z,5.78
2022-08-21T11:59:58.394Z,6.28
2022-08-21T12:02:34.751Z,5.68
2022-08-21T12:05:09.380Z,6.68
2022-08-21T12:07:42.390Z,5.90
2022-08-21T12:10:22.095Z,6.22
2022-08-21T12:12:49.602Z,5.25
2022-08-21T12:15:22.314Z,5.63
2022-08-21T12:18:21.549Z,4.95
2022-08-21T12:21:06.328Z,5.82
2022-08-21T12:23:48.253Z,4.95
2022-08-21T12:26:35.114Z,5.47
2022-08-21T12:29:30.530Z,5.85
2022-08-21T12:32:21.362Z,4.70
2022-08-21T12:34:53.786Z,4.43
2022-08-21T12:37:36.290Z,4.50
2022-08-21T12:40:11.550Z,4.93
2022-08-21T12:42:43.347Z,5.03
2022-08-21T12:45:18.659Z,4.18
2022-08-21T12:48:09.910Z,4.57
2022-08-21T12:50:38.432Z,3.38
2022-08-21T12:53:36.551Z,4.22
2022-08-21T12:56:10.056Z,3.75
2022-08-21T12:58:37.131Z,4.85
2022-08-21T13:01:05.233Z,4.28
2022-08-21T13:03:36.374Z,3.97
2022-08-21T13:08:40.082Z,3.80
2022-08-21T13:11:13.690Z,3.05
2022-08-21T13:13:44.647Z,3.38
2022-08-21T13:16:23.434Z,3.40
2022-08-21T13:19:04.094Z,3.10
2022-08-21T13:21:34.783Z,3.60
2022-08-21T13:24:39.172Z,3.40
2022-08-21T13:27:04.653Z,2.95
2022-08-21T13:29:35.984Z,3.08
2022-08-21T13:32:07.976Z,3.20
2022-08-21T13:34:37.281Z,3.10
2022-08-21T13:37:09.681Z,3.42
2022-08-21T13:39:37.369Z,3.35
2022-08-21T13:42:11.986Z,2.80
2022-08-21T13:44:44.826Z,3.28
2022-08-21T13:47:15.900Z,3.30
2022-08-21T13:52:22.023Z,3.20
2022-08-21T13:55:12.700Z,3.30
2022-08-21T13:57:40.408Z,2.92
2022-08-21T14:00:16.155Z,3.03
2022-08-21T14:02:47.319Z,2.58
2022-08-21T14:08:03.191Z,2.72
2022-08-21T14:10:31.461Z,2.88
2022-08-21T14:13:07.757Z,2.58
2022-08-21T14:15:36.436Z,2.40
2022-08-21T14:18:18.826Z,2.90
2022-08-21T14:20:46.882Z,2.85
2022-08-21T14:23:25.182Z,2.70
2022-08-21T14:25:52.014Z,2.60
2022-08-21T14:28:42.617Z,2.85
2022-08-21T14:31:20.770Z,2.75
2022-08-21T14:33:48.074Z,2.80
2022-08-21T14:36:14.684Z,2.53
2022-08-21T14:38:41.839Z,2.90
2022-08-21T14:41:18.673Z,2.55
2022-08-21T14:43:59.775Z,2.58
2022-08-21T14:46:36.320Z,2.65
2022-08-21T14:49:07.477Z,2.70
2022-08-21T14:51:34.417Z,2.38
2022-08-21T14:54:01.155Z,2.67
2022-08-21T14:56:27.955Z,2.90
2022-08-21T14:58:57.108Z,2.50
2022-08-21T15:01:24.085Z,2.63
2022-08-21T15:03:50.850Z,2.53
2022-08-21T15:06:18.705Z,2.40
2022-08-21T15:08:45.369Z,2.40
2022-08-21T15:11:41.965Z,2.33
2022-08-21T15:14:11.766Z,2.40
2022-08-21T15:16:38.538Z,2.60
2022-08-21T15:19:05.186Z,2.70
2022-08-21T15:21:31.765Z,2.47
2022-08-21T15:23:58.517Z,2.50
2022-08-21T15:26:26.995Z,2.33
2022-08-21T15:28:53.697Z,2.78
2022-08-21T15:31:20.301Z,2.20
2022-08-21T15:33:46.930Z,2.20
2022-08-21T15:36:13.836Z,2.60
2022-08-21T15:38:40.460Z,2.85
2022-08-21T15:41:08.105Z,2.40
2022-08-21T15:43:52.299Z,2.60
2022-08-21T15:46:20.870Z,2.30
2022-08-21T15:48:48.417Z,2.70
2022-08-21T15:51:16.871Z,2.97
2022-08-21T15:53:44.120Z,2.20
2022-08-21T15:56:15.826Z,2.40
2022-08-21T15:58:42.535Z,2.50
2022-08-21T16:01:09.160Z,2.45
2022-08-21T16:03:35.845Z,2.20
2022-08-21T16:06:02.436Z,2.42
2022-08-21T16:08:29.075Z,2.30
2022-08-21T16:10:55.878Z,2.40
2022-08-21T16:13:35.311Z,2.50
2022-08-21T16:16:02.355Z,2.70
2022-08-21T16:18:30.111Z,2.60
2022-08-21T16:20:56.768Z,2.55
2022-08-21T16:23:24.538Z,2.63
2022-08-21T16:25:51.378Z,2.70
2022-08-21T16:28:21.245Z,2.45
2022-08-21T16:30:50.642Z,2.40
2022-08-21T16:33:42.639Z,2.40
2022-08-21T16:36:12.651Z,2.90
2022-08-21T16:38:41.948Z,2.45
2022-08-21T16:41:12.009Z,2.30
2022-08-21T16:43:41.801Z,2.80
2022-08-21T16:46:10.690Z,2.58
2022-08-21T16:48:37.344Z,2.80
2022-08-21T16:51:05.047Z,2.42
2022-08-21T16:53:31.697Z,2.50
2022-08-21T16:55:58.647Z,2.35
2022-08-21T16:58:32.670Z,2.72
2022-08-21T17:01:01.523Z,2.67
2022-08-21T17:03:48.720Z,2.50
2022-08-21T17:06:16.565Z,3.03
2022-08-21T17:08:43.598Z,2.50
2022-08-21T17:11:36.751Z,2.63
2022-08-21T17:14:08.210Z,2.80
2022-08-21T17:16:35.446Z,2.38
2022-08-21T17:19:02.029Z,2.50
2022-08-21T17:21:28.637Z,2.63
2022-08-21T17:23:55.358Z,2.60
2022-08-21T17:26:22.034Z,2.63
2022-08-21T17:28:51.867Z,2.65
2022-08-21T17:31:20.876Z,2.53
2022-08-21T17:33:51.118Z,2.70
2022-08-21T17:36:19.219Z,3.50
2022-08-21T17:38:46.895Z,2.60
2022-08-21T17:41:14.339Z,2.78
2022-08-21T17:43:41.211Z,2.90
2022-08-21T17:46:10.194Z,2.67
2022-08-21T17:48:36.792Z,2.70
2022-08-21T17:51:03.946Z,2.42
2022-08-21T17:53:30.652Z,2.95
2022-08-21T17:55:57.384Z,2.63
2022-08-21T17:58:24.008Z,2.53
2022-08-21T18:00:50.936Z,2.80
2022-08-21T18:03:22.485Z,2.67
2022-08-21T18:05:51.751Z,2.70
2022-08-21T18:08:18.375Z,2.50
2022-08-21T18:10:47.907Z,2.88
2022-08-21T18:13:24.389Z,2.63
2022-08-21T18:15:52.828Z,2.35
2022-08-21T18:18:21.779Z,2.70
2022-08-21T18:20:49.319Z,2.70
2022-08-21T18:23:16.379Z,2.50
2022-08-21T18:25:48.787Z,2.55
2022-08-21T18:28:17.531Z,2.97
2022-08-21T18:30:44.669Z,2.90
2022-08-21T18:33:13.982Z,2.90
2022-08-21T18:35:42.263Z,3.40
2022-08-21T18:38:09.649Z,2.90
2022-08-21T18:40:40.568Z,2.70
2022-08-21T18:43:10.023Z,2.65
2022-08-21T18:45:42.710Z,2.90
2022-08-21T18:48:12.219Z,2.92
2022-08-21T18:50:41.743Z,2.45
2022-08-21T18:53:24.203Z,2.60
2022-08-21T18:56:04.901Z,2.75
2022-08-21T18:58:33.196Z,2.80
2022-08-21T19:01:00.027Z,2.72
2022-08-21T19:03:26.835Z,3.20
2022-08-21T19:05:54.235Z,3.00
2022-08-21T19:08:23.967Z,3.10
2022-08-21T19:10:55.537Z,3.17
2022-08-21T19:13:23.282Z,2.85
2022-08-21T19:15:53.189Z,2.80
2022-08-21T19:18:28.290Z,2.53
2022-08-21T19:26:35.668Z,3.10
2022-08-21T19:29:07.091Z,3.30
2022-08-21T19:31:41.602Z,3.47
2022-08-21T19:34:26.442Z,3.60
2022-08-21T19:36:53.520Z,3.25
2022-08-21T19:39:20.207Z,3.30
2022-08-21T19:41:51.320Z,3.85
2022-08-21T19:46:49.958Z,3.50
2022-08-21T19:49:21.105Z,3.88
2022-08-21T19:51:49.411Z,3.30
2022-08-21T19:54:21.025Z,3.60
2022-08-21T19:56:49.509Z,3.78
2022-08-21T20:02:11.869Z,3.45
2022-08-21T20:04:38.812Z,3.55
2022-08-21T20:07:26.767Z,3.92
2022-08-21T20:09:54.393Z,4.43
2022-08-21T20:12:23.379Z,4.50
2022-08-21T20:14:51.019Z,4.30
2022-08-21T20:17:19.304Z,3.97
2022-08-21T20:19:51.302Z,3.97
2022-08-21T20:22:21.807Z,4.15
2022-08-21T20:24:50.836Z,3.53
2022-08-21T20:27:25.813Z,4.00
2022-08-21T20:29:52.933Z,4.13
2022-08-21T20:32:19.581Z,3.97
2022-08-21T20:34:52.126Z,3.60
2022-08-21T20:37:35.823Z,3.30
2022-08-21T20:40:11.958Z,3.65
2022-08-21T20:42:41.430Z,4.25
2022-08-21T20:45:12.357Z,3.30
2022-08-21T20:47:40.162Z,3.75
2022-08-21T20:50:14.165Z,3.90
2022-08-21T20:52:41.698Z,4.65
2022-08-21T20:55:15.364Z,3.38
2022-08-21T20:58:00.569Z,3.40
2022-08-21T21:00:32.789Z,3.33
2022-08-21T21:03:06.698Z,3.40
2022-08-21T21:05:48.410Z,3.30
2022-08-21T21:08:25.767Z,3.20
2022-08-21T21:11:00.068Z,3.00
2022-08-21T21:13:32.062Z,2.75
2022-08-21T21:16:05.890Z,3.33
2022-08-21T21:18:40.806Z,3.30
2022-08-21T21:21:34.921Z,3.42
2022-08-21T21:24:11.988Z,3.95
2022-08-21T21:26:46.187Z,2.97
2022-08-21T21:29:27.425Z,2.83
2022-08-21T21:31:57.809Z,3.25
2022-08-21T21:34:28.044Z,3.25
2022-08-21T21:37:17.329Z,4.35
2022-08-21T21:40:10.660Z,3.80
2022-08-21T21:43:03.517Z,3.53
2022-08-21T21:45:42.580Z,3.50
2022-08-21T21:48:35.252Z,4.13
2022-08-21T21:51:20.415Z,3.50
2022-08-21T21:54:36.921Z,3.33
2022-08-21T21:57:34.211Z,3.42
2022-08-21T22:00:19.431Z,3.50
2022-08-21T22:03:47.219Z,3.28
2022-08-21T22:06:27.218Z,3.70
2022-08-21T22:08:55.809Z,3.42
2022-08-21T22:11:37.636Z,3.05
2022-08-21T22:14:15.196Z,3.35
2022-08-21T22:16:46.226Z,3.08
2022-08-21T22:22:07.554Z,2.90
2022-08-21T22:24:40.438Z,3.55
2022-08-21T22:27:12.688Z,3.15
2022-08-21T22:29:48.683Z,2.88
2022-08-21T22:32:22.323Z,3.22
2022-08-21T22:35:05.827Z,3.13
2022-08-21T22:37:42.943Z,3.30
2022-08-21T22:40:15.913Z,3.13
2022-08-21T22:42:42.974Z,3.42
2022-08-21T22:45:12.343Z,3.13
2022-08-21T22:47:43.418Z,3.13
2022-08-21T22:50:27.589Z,3.20
2022-08-21T22:52:58.796Z,3.28
2022-08-21T22:55:52.725Z,3.40
2022-08-21T22:58:24.043Z,2.70
2022-08-21T23:01:03.686Z,3.00
2022-08-21T23:03:47.437Z,3.10
2022-08-21T23:06:29.927Z,2.92
2022-08-21T23:08:58.162Z,3.20
2022-08-21T23:11:42.983Z,2.92
2022-08-21T23:14:14.359Z,2.92
2022-08-21T23:16:47.423Z,2.90
2022-08-21T23:19:20.518Z,2.60
2022-08-21T23:22:13.552Z,3.35
2022-08-21T23:24:59.465Z,3.00
2022-08-21T23:27:53.939Z,3.20
2022-08-21T23:30:39.362Z,2.80
2022-08-21T23:33:17.064Z,2.67
2022-08-21T23:36:17.565Z,3.15
2022-08-21T23:39:10.161Z,3.20
2022-08-21T23:41:55.557Z,2.90
2022-08-21T23:44:54.958Z,2.90
2022-08-21T23:48:00.091Z,3.05
2022-08-21T23:50:36.691Z,2.80
2022-08-21T23:53:19.396Z,3.17
2022-08-21T23:56:07.704Z,3.03
2022-08-21T23:58:54.235Z,2.50
